sensor_id;sensor_type;location;lat;lon;timestamp;P1;durP1;ratioP1;P2;durP2;ratioP2
9986;SDS011;5033;46.310;11.214;2022-11-10T00:01:03;5.32;;;4.55;;
9986;SDS011;5033;46.310;11.214;2022-11-10T00:03:31;5.45;;;4.57;;
9986;SDS011;5033;46.310;11.214;2022-11-10T00:06:00;4.50;;;4.10;;
9986;SDS011;5033;46.310;11.214;2022-11-10T00:08:28;4.85;;;4.43;;
9986;SDS011;5033;46.310;11.214;2022-11-10T00:10:57;4.82;;;4.43;;
9986;SDS011;5033;46.310;11.214;2022-11-10T00:13:26;3.90;;;3.60;;
9986;SDS011;5033;46.310;11.214;2022-11-10T00:15:57;4.60;;;4.20;;
9986;SDS011;5033;46.310;11.214;2022-11-10T00:18:42;4.00;;;3.70;;
9986;SDS011;5033;46.310;11.214;2022-11-10T00:21:10;4.55;;;4.20;;
9986;SDS011;5033;46.310;11.214;2022-11-10T00:23:38;3.67;;;3.38;;
9986;SDS011;5033;46.310;11.214;2022-11-10T00:26:11;3.92;;;3.63;;
9986;SDS011;5033;46.310;11.214;2022-11-10T00:28:39;3.72;;;3.42;;
9986;SDS011;5033;46.310;11.214;2022-11-10T00:31:06;3.33;;;3.03;;
9986;SDS011;5033;46.310;11.214;2022-11-10T00:33:34;4.20;;;3.80;;
9986;SDS011;5033;46.310;11.214;2022-11-10T00:36:02;3.83;;;3.53;;
9986;SDS011;5033;46.310;11.214;2022-11-10T00:38:30;3.95;;;3.65;;
9986;SDS011;5033;46.310;11.214;2022-11-10T00:40:57;3.88;;;3.58;;
9986;SDS011;5033;46.310;11.214;2022-11-10T00:43:26;3.50;;;3.20;;
9986;SDS011;5033;46.310;11.214;2022-11-10T00:45:54;3.45;;;3.25;;
9986;SDS011;5033;46.310;11.214;2022-11-10T00:48:21;3.40;;;3.20;;
9986;SDS011;5033;46.310;11.214;2022-11-10T00:50:49;3.35;;;3.15;;
9986;SDS011;5033;46.310;11.214;2022-11-10T00:53:17;3.08;;;2.88;;
9986;SDS011;5033;46.310;11.214;2022-11-10T00:55:44;3.17;;;2.97;;
9986;SDS011;5033;46.310;11.214;2022-11-10T00:58:12;3.10;;;2.90;;
9986;SDS011;5033;46.310;11.214;2022-11-10T01:00:41;3.08;;;2.88;;
9986;SDS011;5033;46.310;11.214;2022-11-10T01:03:11;2.95;;;2.75;;
9986;SDS011;5033;46.310;11.214;2022-11-10T01:05:39;3.08;;;2.88;;
9986;SDS011;5033;46.310;11.214;2022-11-10T01:08:07;3.30;;;3.00;;
9986;SDS011;5033;46.310;11.214;2022-11-10T01:10:34;3.22;;;2.92;;
9986;SDS011;5033;46.310;11.214;2022-11-10T01:13:02;3.17;;;2.97;;
9986;SDS011;5033;46.310;11.214;2022-11-10T01:15:29;3.08;;;2.88;;
9986;SDS011;5033;46.310;11.214;2022-11-10T01:17:58;2.90;;;2.70;;
9986;SDS011;5033;46.310;11.214;2022-11-10T01:20:25;2.83;;;2.65;;
9986;SDS011;5033;46.310;11.214;2022-11-10T01:22:52;3.20;;;3.00;;
9986;SDS011;5033;46.310;11.214;2022-11-10T01:25:19;3.45;;;3.15;;
9986;SDS011;5033;46.310;11.214;2022-11-10T01:27:47;3.50;;;3.20;;
9986;SDS011;5033;46.310;11.214;2022-11-10T01:30:14;3.25;;;3.05;;
9986;SDS011;5033;46.310;11.214;2022-11-10T01:32:41;3.72;;;3.42;;
9986;SDS011;5033;46.310;11.214;2022-11-10T01:35:10;3.75;;;3.45;;
9986;SDS011;5033;46.310;11.214;2022-11-10T01:37:37;3.70;;;3.40;;
9986;SDS011;5033;46.310;11.214;2022-11-10T01:40:05;3.55;;;3.35;;
9986;SDS011;5033;46.310;11.214;2022-11-10T01:42:41;3.47;;;3.28;;
9986;SDS011;5033;46.310;11.214;2022-11-10T01:48:13;3.78;;;3.47;;
9986;SDS011;5033;46.310;11.214;2022-11-10T01:50:46;3.33;;;3.13;;
9986;SDS011;5033;46.310;11.214;2022-11-10T01:53:16;3.25;;;3.05;;
9986;SDS011;5033;46.310;11.214;2022-11-10T01:55:47;2.85;;;2.70;;
9986;SDS011;5033;46.310;11.214;2022-11-10T01:58:15;3.28;;;3.08;;
9986;SDS011;5033;46.310;11.214;2022-11-10T02:00:47;3.40;;;3.10;;
9986;SDS011;5033;46.310;11.214;2022-11-10T02:03:15;3.60;;;3.30;;
9986;SDS011;5033;46.310;11.214;2022-11-10T02:05:50;3.58;;;3.28;;
9986;SDS011;5033;46.310;11.214;2022-11-10T02:08:18;3.58;;;3.28;;
9986;SDS011;5033;46.310;11.214;2022-11-10T02:10:47;3.40;;;3.20;;
9986;SDS011;5033;46.310;11.214;2022-11-10T02:13:14;4.07;;;3.78;;
9986;SDS011;5033;46.310;11.214;2022-11-10T02:15:42;4.03;;;3.72;;
9986;SDS011;5033;46.310;11.214;2022-11-10T02:18:09;4.03;;;3.72;;
9986;SDS011;5033;46.310;11.214;2022-11-10T02:20:37;4.13;;;3.83;;
9986;SDS011;5033;46.310;11.214;2022-11-10T02:23:13;4.20;;;3.90;;
9986;SDS011;5033;46.310;11.214;2022-11-10T02:26:00;3.40;;;3.20;;
9986;SDS011;5033;46.310;11.214;2022-11-10T02:28:31;4.47;;;4.07;;
9986;SDS011;5033;46.310;11.214;2022-11-10T02:31:00;4.13;;;3.83;;
9986;SDS011;5033;46.310;11.214;2022-11-10T02:33:28;3.90;;;3.60;;
9986;SDS011;5033;46.310;11.214;2022-11-10T02:35:55;4.13;;;3.83;;
9986;SDS011;5033;46.310;11.214;2022-11-10T02:38:24;4.15;;;3.85;;
9986;SDS011;5033;46.310;11.214;2022-11-10T02:40:52;4.45;;;4.05;;
9986;SDS011;5033;46.310;11.214;2022-11-10T02:43:19;4.00;;;3.70;;
9986;SDS011;5033;46.310;11.214;2022-11-10T02:45:46;3.95;;;3.75;;
9986;SDS011;5033;46.310;11.214;2022-11-10T02:48:14;3.45;;;3.25;;
9986;SDS011;5033;46.310;11.214;2022-11-10T02:50:42;3.60;;;3.38;;
9986;SDS011;5033;46.310;11.214;2022-11-10T02:53:09;4.20;;;3.80;;
9986;SDS011;5033;46.310;11.214;2022-11-10T02:55:39;4.03;;;3.72;;
9986;SDS011;5033;46.310;11.214;2022-11-10T02:58:06;4.10;;;3.70;;
9986;SDS011;5033;46.310;11.214;2022-11-10T03:00:33;3.78;;;3.47;;
9986;SDS011;5033;46.310;11.214;2022-11-10T03:03:00;3.33;;;3.13;;
9986;SDS011;5033;46.310;11.214;2022-11-10T03:05:29;3.67;;;3.47;;
9986;SDS011;5033;46.310;11.214;2022-11-10T03:07:58;4.13;;;3.83;;
9986;SDS011;5033;46.310;11.214;2022-11-10T03:10:26;4.13;;;3.85;;
9986;SDS011;5033;46.310;11.214;2022-11-10T03:12:56;4.55;;;4.25;;
9986;SDS011;5033;46.310;11.214;2022-11-10T03:15:24;4.90;;;4.50;;
9986;SDS011;5033;46.310;11.214;2022-11-10T03:17:51;4.85;;;4.45;;
9986;SDS011;5033;46.310;11.214;2022-11-10T03:20:19;4.07;;;3.78;;
9986;SDS011;5033;46.310;11.214;2022-11-10T03:22:47;3.40;;;3.20;;
9986;SDS011;5033;46.310;11.214;2022-11-10T03:25:14;4.38;;;4.03;;
9986;SDS011;5033;46.310;11.214;2022-11-10T03:27:41;3.70;;;3.45;;
9986;SDS011;5033;46.310;11.214;2022-11-10T03:30:10;3.75;;;3.45;;
9986;SDS011;5033;46.310;11.214;2022-11-10T03:32:38;3.60;;;3.40;;
9986;SDS011;5033;46.310;11.214;2022-11-10T03:35:06;3.80;;;3.50;;
9986;SDS011;5033;46.310;11.214;2022-11-10T03:37:34;4.03;;;3.72;;
9986;SDS011;5033;46.310;11.214;2022-11-10T03:40:02;3.65;;;3.42;;
9986;SDS011;5033;46.310;11.214;2022-11-10T03:42:29;4.43;;;3.80;;
9986;SDS011;5033;46.310;11.214;2022-11-10T03:44:56;3.50;;;3.30;;
9986;SDS011;5033;46.310;11.214;2022-11-10T03:47:25;3.90;;;3.60;;
9986;SDS011;5033;46.310;11.214;2022-11-10T03:49:52;3.58;;;3.38;;
9986;SDS011;5033;46.310;11.214;2022-11-10T03:52:20;4.05;;;3.75;;
9986;SDS011;5033;46.310;11.214;2022-11-10T03:54:47;4.20;;;3.90;;
9986;SDS011;5033;46.310;11.214;2022-11-10T03:57:14;4.28;;;3.97;;
9986;SDS011;5033;46.310;11.214;2022-11-10T03:59:42;4.63;;;4.32;;
9986;SDS011;5033;46.310;11.214;2022-11-10T04:02:09;5.25;;;3.92;;
9986;SDS011;5033;46.310;11.214;2022-11-10T04:04:38;4.28;;;3.88;;
9986;SDS011;5033;46.310;11.214;2022-11-10T04:07:22;3.80;;;3.50;;
9986;SDS011;5033;46.310;11.214;2022-11-10T04:10:08;3.92;;;3.65;;
9986;SDS011;5033;46.310;11.214;2022-11-10T04:12:35;4.40;;;4.10;;
9986;SDS011;5033;46.310;11.214;2022-11-10T04:15:20;4.18;;;3.88;;
9986;SDS011;5033;46.310;11.214;2022-11-10T04:18:04;3.50;;;3.30;;
9986;SDS011;5033;46.310;11.214;2022-11-10T04:20:50;4.28;;;3.97;;
9986;SDS011;5033;46.310;11.214;2022-11-10T04:23:19;3.45;;;3.20;;
9986;SDS011;5033;46.310;11.214;2022-11-10T04:25:56;3.33;;;3.03;;
9986;SDS011;5033;46.310;11.214;2022-11-10T04:28:43;4.28;;;3.40;;
9986;SDS011;5033;46.310;11.214;2022-11-10T04:31:11;3.70;;;3.47;;
9986;SDS011;5033;46.310;11.214;2022-11-10T04:33:39;3.70;;;3.45;;
9986;SDS011;5033;46.310;11.214;2022-11-10T04:36:09;3.75;;;3.45;;
9986;SDS011;5033;46.310;11.214;2022-11-10T04:38:37;3.75;;;3.55;;
9986;SDS011;5033;46.310;11.214;2022-11-10T04:41:05;3.75;;;3.47;;
9986;SDS011;5033;46.310;11.214;2022-11-10T04:43:33;3.78;;;3.47;;
9986;SDS011;5033;46.310;11.214;2022-11-10T04:46:00;4.10;;;3.90;;
9986;SDS011;5033;46.310;11.214;2022-11-10T04:48:28;4.30;;;4.00;;
9986;SDS011;5033;46.310;11.214;2022-11-10T04:50:56;3.90;;;3.60;;
9986;SDS011;5033;46.310;11.214;2022-11-10T04:53:29;4.10;;;3.80;;
9986;SDS011;5033;46.310;11.214;2022-11-10T04:55:56;4.28;;;3.97;;
9986;SDS011;5033;46.310;11.214;2022-11-10T04:58:24;4.57;;;4.18;;
9986;SDS011;5033;46.310;11.214;2022-11-10T05:00:51;4.50;;;4.10;;
9986;SDS011;5033;46.310;11.214;2022-11-10T05:03:19;4.53;;;4.20;;
9986;SDS011;5033;46.310;11.214;2022-11-10T05:05:46;5.78;;;5.28;;
9986;SDS011;5033;46.310;11.214;2022-11-10T05:08:14;4.88;;;4.47;;
9986;SDS011;5033;46.310;11.214;2022-11-10T05:10:43;5.25;;;4.75;;
9986;SDS011;5033;46.310;11.214;2022-11-10T05:13:10;7.28;;;5.53;;
9986;SDS011;5033;46.310;11.214;2022-11-10T05:15:38;5.95;;;5.40;;
9986;SDS011;5033;46.310;11.214;2022-11-10T05:18:06;5.15;;;4.75;;
9986;SDS011;5033;46.310;11.214;2022-11-10T05:20:33;4.90;;;4.50;;
9986;SDS011;5033;46.310;11.214;2022-11-10T05:23:01;4.82;;;4.43;;
9986;SDS011;5033;46.310;11.214;2022-11-10T05:25:47;4.80;;;4.40;;
9986;SDS011;5033;46.310;11.214;2022-11-10T05:28:14;4.53;;;4.13;;
9986;SDS011;5033;46.310;11.214;2022-11-10T05:30:41;4.25;;;3.95;;
9986;SDS011;5033;46.310;11.214;2022-11-10T05:33:09;3.97;;;3.67;;
9986;SDS011;5033;46.310;11.214;2022-11-10T05:35:36;4.20;;;3.90;;
9986;SDS011;5033;46.310;11.214;2022-11-10T05:38:04;4.30;;;4.00;;
9986;SDS011;5033;46.310;11.214;2022-11-10T05:40:32;5.15;;;4.75;;
9986;SDS011;5033;46.310;11.214;2022-11-10T05:43:01;4.57;;;4.28;;
9986;SDS011;5033;46.310;11.214;2022-11-10T05:45:28;3.78;;;3.58;;
9986;SDS011;5033;46.310;11.214;2022-11-10T05:47:55;5.47;;;5.00;;
9986;SDS011;5033;46.310;11.214;2022-11-10T05:50:23;4.82;;;4.43;;
9986;SDS011;5033;46.310;11.214;2022-11-10T05:52:51;4.88;;;4.38;;
9986;SDS011;5033;46.310;11.214;2022-11-10T05:55:20;5.30;;;4.90;;
9986;SDS011;5033;46.310;11.214;2022-11-10T05:57:49;5.32;;;4.93;;
9986;SDS011;5033;46.310;11.214;2022-11-10T06:00:19;4.97;;;4.57;;
9986;SDS011;5033;46.310;11.214;2022-11-10T06:02:57;5.40;;;5.03;;
9986;SDS011;5033;46.310;11.214;2022-11-10T06:05:26;5.32;;;4.93;;
9986;SDS011;5033;46.310;11.214;2022-11-10T06:07:54;5.63;;;5.22;;
9986;SDS011;5033;46.310;11.214;2022-11-10T06:10:21;4.60;;;4.30;;
9986;SDS011;5033;46.310;11.214;2022-11-10T06:12:49;4.65;;;4.35;;
9986;SDS011;5033;46.310;11.214;2022-11-10T06:15:16;4.65;;;4.25;;
9986;SDS011;5033;46.310;11.214;2022-11-10T06:17:45;4.18;;;3.88;;
9986;SDS011;5033;46.310;11.214;2022-11-10T06:20:12;3.45;;;3.15;;
9986;SDS011;5033;46.310;11.214;2022-11-10T06:22:41;3.42;;;3.22;;
9986;SDS011;5033;46.310;11.214;2022-11-10T06:25:08;4.38;;;3.78;;
9986;SDS011;5033;46.310;11.214;2022-11-10T06:27:36;3.50;;;3.20;;
9986;SDS011;5033;46.310;11.214;2022-11-10T06:30:03;3.75;;;3.55;;
9986;SDS011;5033;46.310;11.214;2022-11-10T06:32:32;3.10;;;2.90;;
9986;SDS011;5033;46.310;11.214;2022-11-10T06:35:01;3.55;;;3.35;;
9986;SDS011;5033;46.310;11.214;2022-11-10T06:37:28;3.63;;;3.33;;
9986;SDS011;5033;46.310;11.214;2022-11-10T06:39:55;3.53;;;3.33;;
9986;SDS011;5033;46.310;11.214;2022-11-10T06:42:23;3.35;;;3.15;;
9986;SDS011;5033;46.310;11.214;2022-11-10T06:44:50;2.85;;;2.65;;
9986;SDS011;5033;46.310;11.214;2022-11-10T06:47:17;2.75;;;2.65;;
9986;SDS011;5033;46.310;11.214;2022-11-10T06:49:44;3.25;;;3.05;;
9986;SDS011;5033;46.310;11.214;2022-11-10T06:52:12;3.08;;;2.88;;
9986;SDS011;5033;46.310;11.214;2022-11-10T06:54:40;3.40;;;3.20;;
9986;SDS011;5033;46.310;11.214;2022-11-10T06:57:07;3.28;;;3.08;;
9986;SDS011;5033;46.310;11.214;2022-11-10T06:59:34;3.88;;;3.58;;
9986;SDS011;5033;46.310;11.214;2022-11-10T07:02:01;3.50;;;3.30;;
9986;SDS011;5033;46.310;11.214;2022-11-10T07:04:28;3.78;;;3.47;;
9986;SDS011;5033;46.310;11.214;2022-11-10T07:06:55;4.32;;;4.03;;
9986;SDS011;5033;46.310;11.214;2022-11-10T07:09:24;3.92;;;3.67;;
9986;SDS011;5033;46.310;11.214;2022-11-10T07:11:51;3.95;;;3.72;;
9986;SDS011;5033;46.310;11.214;2022-11-10T07:14:18;3.88;;;3.63;;
9986;SDS011;5033;46.310;11.214;2022-11-10T07:16:45;4.03;;;3.72;;
9986;SDS011;5033;46.310;11.214;2022-11-10T07:19:12;4.78;;;4.38;;
9986;SDS011;5033;46.310;11.214;2022-11-10T07:21:39;5.50;;;5.00;;
9986;SDS011;5033;46.310;11.214;2022-11-10T07:24:07;10.52;;;5.25;;
9986;SDS011;5033;46.310;11.214;2022-11-10T07:26:36;6.78;;;5.65;;
9986;SDS011;5033;46.310;11.214;2022-11-10T07:29:03;5.90;;;5.40;;
9986;SDS011;5033;46.310;11.214;2022-11-10T07:31:30;6.35;;;5.85;;
9986;SDS011;5033;46.310;11.214;2022-11-10T07:33:57;6.60;;;6.00;;
9986;SDS011;5033;46.310;11.214;2022-11-10T07:36:24;6.00;;;5.60;;
9986;SDS011;5033;46.310;11.214;2022-11-10T07:38:53;6.13;;;5.63;;
9986;SDS011;5033;46.310;11.214;2022-11-10T07:41:20;6.50;;;6.00;;
9986;SDS011;5033;46.310;11.214;2022-11-10T07:43:48;6.65;;;6.13;;
9986;SDS011;5033;46.310;11.214;2022-11-10T07:46:16;7.20;;;6.60;;
9986;SDS011;5033;46.310;11.214;2022-11-10T07:48:43;6.78;;;6.18;;
9986;SDS011;5033;46.310;11.214;2022-11-10T07:51:10;6.10;;;5.43;;
9986;SDS011;5033;46.310;11.214;2022-11-10T07:53:37;5.63;;;5.22;;
9986;SDS011;5033;46.310;11.214;2022-11-10T07:56:05;5.57;;;5.18;;
9986;SDS011;5033;46.310;11.214;2022-11-10T07:58:33;5.30;;;4.90;;
9986;SDS011;5033;46.310;11.214;2022-11-10T08:01:01;6.03;;;5.53;;
9986;SDS011;5033;46.310;11.214;2022-11-10T08:03:28;5.72;;;5.32;;
9986;SDS011;5033;46.310;11.214;2022-11-10T08:05:55;4.95;;;4.65;;
9986;SDS011;5033;46.310;11.214;2022-11-10T08:08:22;5.00;;;4.70;;
9986;SDS011;5033;46.310;11.214;2022-11-10T08:10:49;5.32;;;4.93;;
9986;SDS011;5033;46.310;11.214;2022-11-10T08:13:17;6.53;;;6.03;;
9986;SDS011;5033;46.310;11.214;2022-11-10T08:15:44;7.43;;;6.75;;
9986;SDS011;5033;46.310;11.214;2022-11-10T08:18:15;6.18;;;5.68;;
9986;SDS011;5033;46.310;11.214;2022-11-10T08:20:43;6.55;;;5.95;;
9986;SDS011;5033;46.310;11.214;2022-11-10T08:23:11;6.45;;;5.95;;
9986;SDS011;5033;46.310;11.214;2022-11-10T08:25:38;5.68;;;5.25;;
9986;SDS011;5033;46.310;11.214;2022-11-10T08:28:06;6.43;;;5.93;;
9986;SDS011;5033;46.310;11.214;2022-11-10T08:30:35;5.35;;;4.85;;
9986;SDS011;5033;46.310;11.214;2022-11-10T08:33:04;5.68;;;5.25;;
9986;SDS011;5033;46.310;11.214;2022-11-10T08:35:35;6.07;;;5.57;;
9986;SDS011;5033;46.310;11.214;2022-11-10T08:38:06;5.93;;;5.53;;
9986;SDS011;5033;46.310;11.214;2022-11-10T08:40:33;5.28;;;4.88;;
9986;SDS011;5033;46.310;11.214;2022-11-10T08:43:02;6.03;;;5.53;;
9986;SDS011;5033;46.310;11.214;2022-11-10T08:45:31;7.78;;;6.95;;
9986;SDS011;5033;46.310;11.214;2022-11-10T08:48:00;8.65;;;7.85;;
9986;SDS011;5033;46.310;11.214;2022-11-10T08:50:29;7.93;;;7.22;;
9986;SDS011;5033;46.310;11.214;2022-11-10T08:53:00;9.40;;;7.63;;
9986;SDS011;5033;46.310;11.214;2022-11-10T08:55:28;6.97;;;6.38;;
9986;SDS011;5033;46.310;11.214;2022-11-10T08:58:00;7.15;;;6.50;;
9986;SDS011;5033;46.310;11.214;2022-11-10T09:00:28;6.72;;;6.07;;
9986;SDS011;5033;46.310;11.214;2022-11-10T09:03:01;6.53;;;5.95;;
9986;SDS011;5033;46.310;11.214;2022-11-10T09:05:30;6.55;;;5.85;;
9986;SDS011;5033;46.310;11.214;2022-11-10T09:07:57;6.53;;;5.93;;
9986;SDS011;5033;46.310;11.214;2022-11-10T09:10:26;5.90;;;5.40;;
9986;SDS011;5033;46.310;11.214;2022-11-10T09:12:53;7.28;;;5.90;;
9986;SDS011;5033;46.310;11.214;2022-11-10T09:15:20;6.85;;;6.10;;
9986;SDS011;5033;46.310;11.214;2022-11-10T09:17:47;7.63;;;6.30;;
9986;SDS011;5033;46.310;11.214;2022-11-10T09:20:14;6.75;;;5.93;;
9986;SDS011;5033;46.310;11.214;2022-11-10T09:22:41;5.05;;;4.65;;
9986;SDS011;5033;46.310;11.214;2022-11-10T09:25:08;6.28;;;5.35;;
9986;SDS011;5033;46.310;11.214;2022-11-10T09:27:37;5.85;;;5.35;;
9986;SDS011;5033;46.310;11.214;2022-11-10T09:30:04;5.93;;;5.30;;
9986;SDS011;5033;46.310;11.214;2022-11-10T09:32:32;5.90;;;5.32;;
9986;SDS011;5033;46.310;11.214;2022-11-10T09:35:00;6.35;;;5.75;;
9986;SDS011;5033;46.310;11.214;2022-11-10T09:37:28;5.90;;;5.40;;
9986;SDS011;5033;46.310;11.214;2022-11-10T09:39:55;5.10;;;4.60;;
9986;SDS011;5033;46.310;11.214;2022-11-10T09:42:29;5.43;;;4.93;;
9986;SDS011;5033;46.310;11.214;2022-11-10T09:45:01;5.35;;;4.75;;
9986;SDS011;5033;46.310;11.214;2022-11-10T09:47:34;5.90;;;5.25;;
9986;SDS011;5033;46.310;11.214;2022-11-10T09:50:06;5.50;;;4.97;;
9986;SDS011;5033;46.310;11.214;2022-11-10T09:52:39;6.65;;;4.90;;
9986;SDS011;5033;46.310;11.214;2022-11-10T09:55:13;5.97;;;5.32;;
9986;SDS011;5033;46.310;11.214;2022-11-10T09:57:50;6.90;;;5.07;;
9986;SDS011;5033;46.310;11.214;2022-11-10T10:00:22;7.00;;;5.38;;
9986;SDS011;5033;46.310;11.214;2022-11-10T10:02:49;5.05;;;4.50;;
9986;SDS011;5033;46.310;11.214;2022-11-10T10:05:31;4.63;;;4.22;;
9986;SDS011;5033;46.310;11.214;2022-11-10T10:08:03;4.68;;;4.28;;
9986;SDS011;5033;46.310;11.214;2022-11-10T10:10:33;4.18;;;3.88;;
9986;SDS011;5033;46.310;11.214;2022-11-10T10:13:14;4.03;;;3.45;;
9986;SDS011;5033;46.310;11.214;2022-11-10T10:15:52;4.90;;;3.45;;
9986;SDS011;5033;46.310;11.214;2022-11-10T10:18:33;3.60;;;3.30;;
9986;SDS011;5033;46.310;11.214;2022-11-10T10:21:11;3.83;;;3.53;;
9986;SDS011;5033;46.310;11.214;2022-11-10T10:23:52;4.20;;;3.80;;
9986;SDS011;5033;46.310;11.214;2022-11-10T10:26:23;5.15;;;4.65;;
9986;SDS011;5033;46.310;11.214;2022-11-10T10:28:54;4.95;;;4.18;;
9986;SDS011;5033;46.310;11.214;2022-11-10T10:31:25;4.85;;;4.32;;
9986;SDS011;5033;46.310;11.214;2022-11-10T10:34:08;4.30;;;3.90;;
9986;SDS011;5033;46.310;11.214;2022-11-10T10:36:38;4.18;;;3.78;;
9986;SDS011;5033;46.310;11.214;2022-11-10T10:39:05;3.28;;;3.08;;
9986;SDS011;5033;46.310;11.214;2022-11-10T10:41:37;3.78;;;3.30;;
9986;SDS011;5033;46.310;11.214;2022-11-10T10:44:08;3.35;;;3.05;;
9986;SDS011;5033;46.310;11.214;2022-11-10T10:46:43;3.90;;;3.53;;
9986;SDS011;5033;46.310;11.214;2022-11-10T10:49:13;3.88;;;3.58;;
9986;SDS011;5033;46.310;11.214;2022-11-10T10:51:43;4.47;;;4.05;;
9986;SDS011;5033;46.310;11.214;2022-11-10T10:54:21;4.07;;;3.78;;
9986;SDS011;5033;46.310;11.214;2022-11-10T10:57:02;4.45;;;4.05;;
9986;SDS011;5033;46.310;11.214;2022-11-10T10:59:31;5.30;;;3.90;;
9986;SDS011;5033;46.310;11.214;2022-11-10T11:02:00;4.40;;;3.40;;
9986;SDS011;5033;46.310;11.214;2022-11-10T11:04:29;5.50;;;3.75;;
9986;SDS011;5033;46.310;11.214;2022-11-10T11:06:59;6.22;;;4.25;;
9986;SDS011;5033;46.310;11.214;2022-11-10T11:09:29;4.75;;;4.07;;
9986;SDS011;5033;46.310;11.214;2022-11-10T11:12:05;4.05;;;3.65;;
9986;SDS011;5033;46.310;11.214;2022-11-10T11:14:33;3.85;;;3.10;;
9986;SDS011;5033;46.310;11.214;2022-11-10T11:17:03;4.55;;;4.15;;
9986;SDS011;5033;46.310;11.214;2022-11-10T11:19:38;5.07;;;3.65;;
9986;SDS011;5033;46.310;11.214;2022-11-10T11:22:14;3.80;;;3.50;;
9986;SDS011;5033;46.310;11.214;2022-11-10T11:24:53;4.35;;;3.95;;
9986;SDS011;5033;46.310;11.214;2022-11-10T11:27:29;4.07;;;3.67;;
9986;SDS011;5033;46.310;11.214;2022-11-10T11:30:07;4.20;;;3.78;;
9986;SDS011;5033;46.310;11.214;2022-11-10T11:35:46;4.82;;;3.70;;
9986;SDS011;5033;46.310;11.214;2022-11-10T11:38:20;3.47;;;3.13;;
9986;SDS011;5033;46.310;11.214;2022-11-10T11:40:55;4.15;;;3.50;;
9986;SDS011;5033;46.310;11.214;2022-11-10T11:43:48;3.90;;;3.55;;
9986;SDS011;5033;46.310;11.214;2022-11-10T11:46:35;3.60;;;3.30;;
9986;SDS011;5033;46.310;11.214;2022-11-10T11:49:22;3.90;;;3.60;;
9986;SDS011;5033;46.310;11.214;2022-11-10T11:52:01;3.58;;;3.25;;
9986;SDS011;5033;46.310;11.214;2022-11-10T11:54:43;3.53;;;3.22;;
9986;SDS011;5033;46.310;11.214;2022-11-10T11:57:20;4.28;;;3.60;;
9986;SDS011;5033;46.310;11.214;2022-11-10T11:59:58;3.88;;;3.47;;
9986;SDS011;5033;46.310;11.214;2022-11-10T12:02:47;4.00;;;3.60;;
9986;SDS011;5033;46.310;11.214;2022-11-10T12:05:44;3.88;;;3.58;;
9986;SDS011;5033;46.310;11.214;2022-11-10T12:08:19;4.55;;;3.65;;
9986;SDS011;5033;46.310;11.214;2022-11-10T12:10:56;3.75;;;3.45;;
9986;SDS011;5033;46.310;11.214;2022-11-10T12:13:36;3.60;;;3.30;;
9986;SDS011;5033;46.310;11.214;2022-11-10T12:16:11;3.42;;;3.13;;
9986;SDS011;5033;46.310;11.214;2022-11-10T12:18:45;3.35;;;3.05;;
9986;SDS011;5033;46.310;11.214;2022-11-10T12:21:22;3.97;;;3.60;;
9986;SDS011;5033;46.310;11.214;2022-11-10T12:23:56;3.95;;;3.65;;
9986;SDS011;5033;46.310;11.214;2022-11-10T12:26:51;6.22;;;3.10;;
9986;SDS011;5033;46.310;11.214;2022-11-10T12:29:22;3.78;;;3.47;;
9986;SDS011;5033;46.310;11.214;2022-11-10T12:31:57;4.43;;;3.47;;
9986;SDS011;5033;46.310;11.214;2022-11-10T12:34:29;3.60;;;3.20;;
9986;SDS011;5033;46.310;11.214;2022-11-10T12:37:03;3.95;;;3.60;;
9986;SDS011;5033;46.310;11.214;2022-11-10T12:39:36;3.55;;;3.25;;
9986;SDS011;5033;46.310;11.214;2022-11-10T12:42:11;3.40;;;3.10;;
9986;SDS011;5033;46.310;11.214;2022-11-10T12:44:44;3.13;;;2.92;;
9986;SDS011;5033;46.310;11.214;2022-11-10T12:47:33;4.30;;;2.83;;
9986;SDS011;5033;46.310;11.214;2022-11-10T12:53:14;2.80;;;2.60;;
9986;SDS011;5033;46.310;11.214;2022-11-10T12:55:48;4.10;;;3.10;;
9986;SDS011;5033;46.310;11.214;2022-11-10T12:58:20;3.70;;;2.90;;
9986;SDS011;5033;46.310;11.214;2022-11-10T13:00:53;2.65;;;2.45;;
9986;SDS011;5033;46.310;11.214;2022-11-10T13:03:24;3.45;;;3.13;;
9986;SDS011;5033;46.310;11.214;2022-11-10T13:05:56;3.53;;;3.22;;
9986;SDS011;5033;46.310;11.214;2022-11-10T13:08:28;3.00;;;2.80;;
9986;SDS011;5033;46.310;11.214;2022-11-10T13:10:59;3.20;;;2.97;;
9986;SDS011;5033;46.310;11.214;2022-11-10T13:13:29;3.10;;;2.90;;
9986;SDS011;5033;46.310;11.214;2022-11-10T13:16:06;3.40;;;3.10;;
9986;SDS011;5033;46.310;11.214;2022-11-10T13:24:36;3.40;;;3.10;;
9986;SDS011;5033;46.310;11.214;2022-11-10T13:27:08;2.92;;;2.72;;
9986;SDS011;5033;46.310;11.214;2022-11-10T13:29:52;3.33;;;2.85;;
9986;SDS011;5033;46.310;11.214;2022-11-10T13:32:22;3.92;;;3.40;;
9986;SDS011;5033;46.310;11.214;2022-11-10T13:37:59;6.30;;;2.75;;
9986;SDS011;5033;46.310;11.214;2022-11-10T13:40:29;2.97;;;2.75;;
9986;SDS011;5033;46.310;11.214;2022-11-10T13:45:58;2.55;;;2.35;;
9986;SDS011;5033;46.310;11.214;2022-11-10T13:48:35;5.45;;;3.08;;
9986;SDS011;5033;46.310;11.214;2022-11-10T13:51:19;3.45;;;3.15;;
9986;SDS011;5033;46.310;11.214;2022-11-10T13:54:01;2.67;;;2.47;;
9986;SDS011;5033;46.310;11.214;2022-11-10T13:56:49;3.10;;;2.80;;
9986;SDS011;5033;46.310;11.214;2022-11-10T13:59:30;2.78;;;2.58;;
9986;SDS011;5033;46.310;11.214;2022-11-10T14:04:57;2.15;;;2.00;;
9986;SDS011;5033;46.310;11.214;2022-11-10T14:07:26;1.90;;;1.80;;
9986;SDS011;5033;46.310;11.214;2022-11-10T14:09:55;1.98;;;1.88;;
9986;SDS011;5033;46.310;11.214;2022-11-10T14:12:32;2.00;;;1.90;;
9986;SDS011;5033;46.310;11.214;2022-11-10T14:15:10;1.90;;;1.80;;
9986;SDS011;5033;46.310;11.214;2022-11-10T14:17:43;1.85;;;1.75;;
9986;SDS011;5033;46.310;11.214;2022-11-10T14:20:18;1.85;;;1.75;;
9986;SDS011;5033;46.310;11.214;2022-11-10T14:22:48;1.73;;;1.63;;
9986;SDS011;5033;46.310;11.214;2022-11-10T14:25:18;1.92;;;1.70;;
9986;SDS011;5033;46.310;11.214;2022-11-10T14:27:50;1.60;;;1.50;;
9986;SDS011;5033;46.310;11.214;2022-11-10T14:30:19;1.60;;;1.50;;
9986;SDS011;5033;46.310;11.214;2022-11-10T14:32:58;2.60;;;1.52;;
9986;SDS011;5033;46.310;11.214;2022-11-10T14:35:28;1.67;;;1.58;;
9986;SDS011;5033;46.310;11.214;2022-11-10T14:37:57;1.70;;;1.60;;
9986;SDS011;5033;46.310;11.214;2022-11-10T14:40:25;1.50;;;1.40;;
9986;SDS011;5033;46.310;11.214;2022-11-10T14:42:55;2.08;;;1.40;;
9986;SDS011;5033;46.310;11.214;2022-11-10T14:45:24;1.50;;;1.40;;
9986;SDS011;5033;46.310;11.214;2022-11-10T14:47:52;1.50;;;1.40;;
9986;SDS011;5033;46.310;11.214;2022-11-10T14:50:21;1.70;;;1.60;;
9986;SDS011;5033;46.310;11.214;2022-11-10T14:52:50;2.60;;;1.50;;
9986;SDS011;5033;46.310;11.214;2022-11-10T14:55:22;1.50;;;1.40;;
9986;SDS011;5033;46.310;11.214;2022-11-10T14:57:53;1.58;;;1.48;;
9986;SDS011;5033;46.310;11.214;2022-11-10T15:00:26;1.50;;;1.40;;
9986;SDS011;5033;46.310;11.214;2022-11-10T15:02:54;1.50;;;1.40;;
9986;SDS011;5033;46.310;11.214;2022-11-10T15:05:23;1.50;;;1.40;;
9986;SDS011;5033;46.310;11.214;2022-11-10T15:07:51;1.48;;;1.48;;
9986;SDS011;5033;46.310;11.214;2022-11-10T15:10:21;1.60;;;1.50;;
9986;SDS011;5033;46.310;11.214;2022-11-10T15:12:58;1.40;;;1.33;;
9986;SDS011;5033;46.310;11.214;2022-11-10T15:15:27;1.75;;;1.65;;
9986;SDS011;5033;46.310;11.214;2022-11-10T15:17:54;2.33;;;1.88;;
9986;SDS011;5033;46.310;11.214;2022-11-10T15:20:28;1.92;;;1.83;;
9986;SDS011;5033;46.310;11.214;2022-11-10T15:22:57;1.80;;;1.70;;
9986;SDS011;5033;46.310;11.214;2022-11-10T15:25:29;1.60;;;1.50;;
9986;SDS011;5033;46.310;11.214;2022-11-10T15:28:01;1.52;;;1.50;;
9986;SDS011;5033;46.310;11.214;2022-11-10T15:30:31;1.60;;;1.50;;
9986;SDS011;5033;46.310;11.214;2022-11-10T15:32:58;1.90;;;1.80;;
9986;SDS011;5033;46.310;11.214;2022-11-10T15:35:29;1.73;;;1.63;;
9986;SDS011;5033;46.310;11.214;2022-11-10T15:37:57;1.85;;;1.73;;
9986;SDS011;5033;46.310;11.214;2022-11-10T15:40:30;2.00;;;1.90;;
9986;SDS011;5033;46.310;11.214;2022-11-10T15:43:07;3.03;;;2.72;;
9986;SDS011;5033;46.310;11.214;2022-11-10T15:45:35;3.53;;;3.20;;